Time,TemperatureF,DewpointF,PressureIn,WindDirection,WindDirectionDegrees,WindSpeedMPH,WindSpeedGustMPH,Humidity,HourlyPrecipIn,Conditions,Clouds,dailyrainin,SoftwareType,DateUTC
2013-04-26 00:02:00,34.0,4.0,-100.00,ENE,65,0.0,3.0,27,-99.99,,,-99.99,,2013-04-26 06:02:00,
2013-04-26 00:11:00,31.0,7.0,-100.00,North,0,0.0,2.0,36,-99.99,,,-99.99,,2013-04-26 06:11:00,
2013-04-26 00:21:00,31.0,6.0,-100.00,ESE,106,2.0,4.0,33,-99.99,,,-99.99,,2013-04-26 06:21:00,
2013-04-26 00:32:00,31.0,6.0,-100.00,ESE,106,2.0,4.0,33,-99.99,,,-99.99,,2013-04-26 06:32:00,
2013-04-26 00:41:00,30.0,8.0,-100.00,NNE,26,2.0,5.0,39,-99.99,,,-99.99,,2013-04-26 06:41:00,
2013-04-26 00:51:00,29.0,8.0,-100.00,NE,40,4.0,4.0,41,-99.99,,,-99.99,,2013-04-26 06:51:00,
2013-04-26 01:11:00,30.0,8.0,-100.00,SE,146,0.0,4.0,37,-99.99,,,-99.99,,2013-04-26 07:11:00,
2013-04-26 01:22:00,30.0,6.0,-100.00,East,95,2.0,2.0,34,-99.99,,,-99.99,,2013-04-26 07:22:00,
2013-04-26 01:31:00,30.0,6.0,-100.00,East,95,2.0,2.0,34,-99.99,,,-99.99,,2013-04-26 07:31:00,
2013-04-26 01:42:00,30.0,8.0,-100.00,SE,144,3.0,5.0,38,-99.99,,,-99.99,,2013-04-26 07:42:00,
2013-04-26 01:52:00,27.0,10.0,-100.00,West,276,2.0,3.0,49,-99.99,,,-99.99,,2013-04-26 07:52:00,
2013-04-26 02:11:00,27.0,12.0,-100.00,East,86,1.0,2.0,51,-99.99,,,-99.99,,2013-04-26 08:11:00,
2013-04-26 02:21:00,27.0,11.0,-100.00,NE,54,0.0,2.0,49,-99.99,,,-99.99,,2013-04-26 08:21:00,
2013-04-26 02:31:00,27.0,11.0,-100.00,NE,54,0.0,2.0,49,-99.99,,,-99.99,,2013-04-26 08:31:00,
2013-04-26 02:42:00,26.0,12.0,-100.00,NE,51,2.0,3.0,54,-99.99,,,-99.99,,2013-04-26 08:42:00,
2013-04-26 02:51:00,25.0,11.0,-100.00,ENE,68,2.0,2.0,55,-99.99,,,-99.99,,2013-04-26 08:51:00,
2013-04-26 03:11:00,27.0,10.0,-100.00,SE,124,6.0,7.0,46,-99.99,,,-99.99,,2013-04-26 09:11:00,
2013-04-26 03:21:00,27.0,11.0,-100.00,ESE,122,2.0,7.0,50,-99.99,,,-99.99,,2013-04-26 09:21:00,
2013-04-26 03:33:00,27.0,11.0,-100.00,ESE,122,2.0,7.0,50,-99.99,,,-99.99,,2013-04-26 09:33:00,
2013-04-26 03:42:00,25.0,10.0,-100.00,ENE,71,3.0,3.0,52,-99.99,,,-99.99,,2013-04-26 09:42:00,
2013-04-26 03:53:00,25.0,11.0,-100.00,East,91,0.0,2.0,53,-99.99,,,-99.99,,2013-04-26 09:53:00,
2013-04-26 04:03:00,25.0,11.0,-100.00,East,91,0.0,2.0,53,-99.99,,,-99.99,,2013-04-26 10:03:00,
2013-04-26 04:12:00,26.0,11.0,-100.00,ESE,111,0.0,3.0,53,-99.99,,,-99.99,,2013-04-26 10:12:00,
2013-04-26 04:22:00,25.0,11.0,-100.00,North,0,0.0,1.0,56,-99.99,,,-99.99,,2013-04-26 10:22:00,
2013-04-26 04:42:00,24.0,12.0,-100.00,NNE,28,2.0,4.0,58,-99.99,,,-99.99,,2013-04-26 10:42:00,
2013-04-26 05:11:00,23.0,11.0,-100.00,North,7,3.0,5.0,60,-99.99,,,-99.99,,2013-04-26 11:11:00,
2013-04-26 05:21:00,24.0,11.0,-100.00,East,89,1.0,2.0,56,-99.99,,,-99.99,,2013-04-26 11:21:00,
2013-04-26 05:41:00,26.0,11.0,-100.00,South,169,0.0,2.0,52,-99.99,,,-99.99,,2013-04-26 11:41:00,
2013-04-26 05:52:00,26.0,10.0,-100.00,ESE,115,3.0,4.0,50,-99.99,,,-99.99,,2013-04-26 11:52:00,
2013-04-26 06:01:00,26.0,10.0,-100.00,ESE,115,3.0,4.0,50,-99.99,,,-99.99,,2013-04-26 12:01:00,
2013-04-26 06:11:00,22.0,11.0,-100.00,NW,313,1.0,2.0,63,-99.99,,,-99.99,,2013-04-26 12:11:00,
2013-04-26 06:21:00,22.0,12.0,-100.00,North,0,0.0,1.0,63,-99.99,,,-99.99,,2013-04-26 12:21:00,
2013-04-26 06:41:00,23.0,11.0,-100.00,ESE,117,1.0,1.0,59,-99.99,,,-99.99,,2013-04-26 12:41:00,
2013-04-26 06:52:00,23.0,11.0,-100.00,North,0,0.0,2.0,61,-99.99,,,-99.99,,2013-04-26 12:52:00,
2013-04-26 07:11:00,22.0,11.0,-100.00,North,0,0.0,1.0,60,-99.99,,,-99.99,,2013-04-26 13:11:00,
2013-04-26 07:41:00,25.0,12.0,-100.00,ESE,113,1.0,2.0,56,-99.99,,,-99.99,,2013-04-26 13:41:00,
2013-04-26 07:52:00,26.0,12.0,-100.00,ENE,74,1.0,2.0,54,-99.99,,,-99.99,,2013-04-26 13:52:00,
2013-04-26 08:01:00,26.0,12.0,-100.00,ENE,74,1.0,2.0,54,-99.99,,,-99.99,,2013-04-26 14:01:00,
2013-04-26 08:11:00,27.0,16.0,-100.00,SW,225,2.0,2.0,61,-99.99,,,-99.99,,2013-04-26 14:11:00,
2013-04-26 08:21:00,28.0,15.0,-100.00,WSW,253,1.0,2.0,57,-99.99,,,-99.99,,2013-04-26 14:21:00,
2013-04-26 08:41:00,34.0,11.0,-100.00,North,0,0.0,1.0,37,-99.99,,,-99.99,,2013-04-26 14:41:00,
2013-04-26 08:51:00,35.0,14.0,-100.00,NW,310,1.0,2.0,42,-99.99,,,-99.99,,2013-04-26 14:51:00,
2013-04-26 09:01:00,35.0,14.0,-100.00,NW,310,1.0,2.0,42,-99.99,,,-99.99,,2013-04-26 15:01:00,
2013-04-26 09:11:00,38.0,13.0,-100.00,WSW,253,0.0,2.0,35,-99.99,,,-99.99,,2013-04-26 15:11:00,
2013-04-26 09:21:00,40.0,14.0,-100.00,West,270,1.0,2.0,34,-99.99,,,-99.99,,2013-04-26 15:21:00,
2013-04-26 09:33:00,40.0,14.0,-100.00,West,270,1.0,2.0,34,-99.99,,,-99.99,,2013-04-26 15:33:00,
2013-04-26 09:42:00,43.0,15.0,-100.00,SW,224,1.0,3.0,30,-99.99,,,-99.99,,2013-04-26 15:42:00,
2013-04-26 09:52:00,44.0,12.0,-100.00,NW,308,2.0,4.0,26,-99.99,,,-99.99,,2013-04-26 15:52:00,
2013-04-26 10:03:00,44.0,12.0,-100.00,NW,308,2.0,4.0,26,-99.99,,,-99.99,,2013-04-26 16:03:00,
2013-04-26 10:12:00,46.0,11.0,-100.00,NNW,333,0.0,3.0,23,-99.99,,,-99.99,,2013-04-26 16:12:00,
2013-04-26 10:23:00,49.0,12.0,-100.00,North,0,0.0,2.0,22,-99.99,,,-99.99,,2013-04-26 16:23:00,
2013-04-26 10:33:00,49.0,12.0,-100.00,North,0,0.0,2.0,22,-99.99,,,-99.99,,2013-04-26 16:33:00,
2013-04-26 10:42:00,50.0,8.0,-100.00,NNE,14,4.0,6.0,17,-99.99,,,-99.99,,2013-04-26 16:42:00,
2013-04-26 10:52:00,50.0,11.0,-100.00,NW,323,2.0,4.0,20,-99.99,,,-99.99,,2013-04-26 16:52:00,
2013-04-26 11:02:00,50.0,11.0,-100.00,NW,323,2.0,4.0,20,-99.99,,,-99.99,,2013-04-26 17:02:00,
2013-04-26 11:11:00,54.0,7.0,-100.00,SE,138,2.0,3.0,14,-99.99,,,-99.99,,2013-04-26 17:11:00,
2013-04-26 11:21:00,54.0,7.0,-100.00,WSW,239,3.0,6.0,14,-99.99,,,-99.99,,2013-04-26 17:21:00,
2013-04-26 11:31:00,54.0,7.0,-100.00,WSW,239,3.0,6.0,14,-99.99,,,-99.99,,2013-04-26 17:31:00,
2013-04-26 11:41:00,55.0,8.0,-100.00,NW,309,3.0,7.0,15,-99.99,,,-99.99,,2013-04-26 17:41:00,
2013-04-26 11:51:00,55.0,7.0,-100.00,SSW,192,6.0,10.0,14,-99.99,,,-99.99,,2013-04-26 17:51:00,
2013-04-26 12:02:00,55.0,7.0,-100.00,SSW,192,6.0,10.0,14,-99.99,,,-99.99,,2013-04-26 18:02:00,
2013-04-26 12:11:00,55.0,7.0,-100.00,SE,129,2.0,6.0,14,-99.99,,,-99.99,,2013-04-26 18:11:00,
2013-04-26 12:22:00,55.0,8.0,-100.00,West,279,8.0,14.0,14,-99.99,,,-99.99,,2013-04-26 18:22:00,
2013-04-26 12:33:00,55.0,8.0,-100.00,West,279,8.0,14.0,14,-99.99,,,-99.99,,2013-04-26 18:33:00,
2013-04-26 12:41:00,56.0,8.0,-100.00,NNW,328,16.0,24.0,14,-99.99,,,-99.99,,2013-04-26 18:41:00,
2013-04-26 12:52:00,55.0,8.0,-100.00,NW,316,12.0,22.0,14,-99.99,,,-99.99,,2013-04-26 18:52:00,
2013-04-26 13:01:00,55.0,8.0,-100.00,NW,316,12.0,22.0,14,-99.99,,,-99.99,,2013-04-26 19:01:00,
2013-04-26 13:11:00,57.0,9.0,-100.00,West,281,16.0,19.0,14,-99.99,,,-99.99,,2013-04-26 19:11:00,
2013-04-26 13:22:00,56.0,7.0,-100.00,NW,321,14.0,18.0,13,-99.99,,,-99.99,,2013-04-26 19:22:00,
2013-04-26 13:31:00,56.0,7.0,-100.00,NW,321,14.0,18.0,13,-99.99,,,-99.99,,2013-04-26 19:31:00,
2013-04-26 13:41:00,56.0,11.0,-100.00,NW,312,11.0,21.0,16,-99.99,,,-99.99,,2013-04-26 19:41:00,
2013-04-26 13:52:00,57.0,6.0,-100.00,West,261,13.0,20.0,12,-99.99,,,-99.99,,2013-04-26 19:52:00,
2013-04-26 14:11:00,58.0,9.0,-100.00,WNW,289,7.0,18.0,14,-99.99,,,-99.99,,2013-04-26 20:11:00,
2013-04-26 14:21:00,58.0,9.0,-100.00,West,272,16.0,21.0,13,-99.99,,,-99.99,,2013-04-26 20:21:00,
2013-04-26 14:32:00,58.0,9.0,-100.00,West,272,16.0,21.0,13,-99.99,,,-99.99,,2013-04-26 20:32:00,
2013-04-26 14:41:00,58.0,12.0,-100.00,WNW,283,14.0,20.0,15,-99.99,,,-99.99,,2013-04-26 20:41:00,
2013-04-26 14:51:00,58.0,10.0,-100.00,WNW,289,15.0,21.0,14,-99.99,,,-99.99,,2013-04-26 20:51:00,
2013-04-26 15:01:00,58.0,10.0,-100.00,WNW,289,15.0,21.0,14,-99.99,,,-99.99,,2013-04-26 21:01:00,
2013-04-26 15:11:00,58.0,9.0,-100.00,West,269,12.0,19.0,13,-99.99,,,-99.99,,2013-04-26 21:11:00,
2013-04-26 15:21:00,59.0,9.0,-100.00,WNW,282,12.0,16.0,13,-99.99,,,-99.99,,2013-04-26 21:21:00,
2013-04-26 15:32:00,59.0,9.0,-100.00,WNW,282,12.0,16.0,13,-99.99,,,-99.99,,2013-04-26 21:32:00,
2013-04-26 15:42:00,59.0,11.0,-100.00,WNW,294,17.0,21.0,14,-99.99,,,-99.99,,2013-04-26 21:42:00,
2013-04-26 15:52:00,59.0,8.0,-100.00,West,279,18.0,21.0,12,-99.99,,,-99.99,,2013-04-26 21:52:00,
2013-04-26 16:12:00,59.0,11.0,-100.00,NW,307,16.0,22.0,14,-99.99,,,-99.99,,2013-04-26 22:12:00,
2013-04-26 16:22:00,60.0,9.0,-100.00,WNW,289,15.0,19.0,13,-99.99,,,-99.99,,2013-04-26 22:22:00,
2013-04-26 16:32:00,60.0,9.0,-100.00,WNW,289,15.0,19.0,13,-99.99,,,-99.99,,2013-04-26 22:32:00,
2013-04-26 16:42:00,59.0,12.0,-100.00,WNW,288,13.0,20.0,15,-99.99,,,-99.99,,2013-04-26 22:42:00,
2013-04-26 16:52:00,59.0,11.0,-100.00,WNW,284,17.0,24.0,15,-99.99,,,-99.99,,2013-04-26 22:52:00,
2013-04-26 17:01:00,59.0,11.0,-100.00,WNW,284,17.0,24.0,15,-99.99,,,-99.99,,2013-04-26 23:01:00,
2013-04-26 17:11:00,58.0,11.0,-100.00,NW,312,15.0,21.0,15,-99.99,,,-99.99,,2013-04-26 23:11:00,
2013-04-26 17:21:00,59.0,12.0,-100.00,West,277,16.0,18.0,15,-99.99,,,-99.99,,2013-04-26 23:21:00,
2013-04-26 17:32:00,59.0,12.0,-100.00,West,277,16.0,18.0,15,-99.99,,,-99.99,,2013-04-26 23:32:00,
2013-04-26 17:42:00,58.0,12.0,-100.00,West,270,15.0,17.0,15,-99.99,,,-99.99,,2013-04-26 23:42:00,
2013-04-26 17:52:00,59.0,11.0,-100.00,WNW,292,16.0,20.0,15,-99.99,,,-99.99,,2013-04-26 23:52:00,
2013-04-26 18:01:00,59.0,11.0,-100.00,WNW,292,16.0,20.0,15,-99.99,,,-99.99,,2013-04-27 00:01:00,
2013-04-26 18:11:00,58.0,12.0,-100.00,WNW,298,13.0,19.0,15,-99.99,,,-99.99,,2013-04-27 00:11:00,
2013-04-26 18:21:00,59.0,11.0,-100.00,West,281,18.0,21.0,14,-99.99,,,-99.99,,2013-04-27 00:21:00,
2013-04-26 18:32:00,59.0,11.0,-100.00,West,281,18.0,21.0,14,-99.99,,,-99.99,,2013-04-27 00:32:00,
2013-04-26 18:41:00,58.0,13.0,-100.00,WNW,292,14.0,18.0,16,-99.99,,,-99.99,,2013-04-27 00:41:00,
2013-04-26 18:51:00,57.0,12.0,-100.00,WNW,299,16.0,18.0,16,-99.99,,,-99.99,,2013-04-27 00:51:00,
2013-04-26 19:01:00,57.0,12.0,-100.00,WNW,299,16.0,18.0,16,-99.99,,,-99.99,,2013-04-27 01:01:00,
2013-04-26 19:11:00,57.0,13.0,-100.00,WNW,299,13.0,17.0,17,-99.99,,,-99.99,,2013-04-27 01:11:00,
2013-04-26 19:21:00,57.0,12.0,-100.00,WNW,297,14.0,18.0,16,-99.99,,,-99.99,,2013-04-27 01:21:00,
2013-04-26 19:32:00,57.0,12.0,-100.00,WNW,297,14.0,18.0,16,-99.99,,,-99.99,,2013-04-27 01:32:00,
2013-04-26 19:41:00,56.0,11.0,-100.00,WNW,295,16.0,20.0,16,-99.99,,,-99.99,,2013-04-27 01:41:00,
2013-04-26 19:52:00,56.0,10.0,-100.00,WNW,299,16.0,19.0,16,-99.99,,,-99.99,,2013-04-27 01:52:00,
2013-04-26 20:11:00,55.0,10.0,-100.00,WNW,293,13.0,17.0,16,-99.99,,,-99.99,,2013-04-27 02:11:00,
2013-04-26 20:22:00,53.0,10.0,-100.00,WNW,293,12.0,16.0,17,-99.99,,,-99.99,,2013-04-27 02:22:00,
2013-04-26 20:42:00,51.0,13.0,-100.00,WNW,292,11.0,14.0,21,-99.99,,,-99.99,,2013-04-27 02:42:00,
2013-04-26 20:51:00,50.0,12.0,-100.00,WNW,295,12.0,14.0,21,-99.99,,,-99.99,,2013-04-27 02:51:00,
2013-04-26 21:02:00,50.0,12.0,-100.00,WNW,295,12.0,14.0,21,-99.99,,,-99.99,,2013-04-27 03:02:00,
2013-04-26 21:11:00,47.0,12.0,-100.00,WNW,285,9.0,10.0,24,-99.99,,,-99.99,,2013-04-27 03:11:00,
2013-04-26 21:22:00,48.0,13.0,-100.00,North,354,3.0,9.0,24,-99.99,,,-99.99,,2013-04-27 03:22:00,
2013-04-26 21:32:00,48.0,13.0,-100.00,North,354,3.0,9.0,24,-99.99,,,-99.99,,2013-04-27 03:32:00,
2013-04-26 21:42:00,48.0,11.0,-100.00,NNE,32,4.0,5.0,21,-99.99,,,-99.99,,2013-04-27 03:42:00,
2013-04-26 21:52:00,48.0,11.0,-100.00,NE,40,3.0,5.0,22,-99.99,,,-99.99,,2013-04-27 03:52:00,
2013-04-26 22:02:00,48.0,11.0,-100.00,NE,40,3.0,5.0,22,-99.99,,,-99.99,,2013-04-27 04:02:00,
2013-04-26 22:12:00,46.0,13.0,-100.00,SE,133,3.0,6.0,26,-99.99,,,-99.99,,2013-04-27 04:12:00,
2013-04-26 22:22:00,45.0,13.0,-100.00,SE,145,3.0,4.0,27,-99.99,,,-99.99,,2013-04-27 04:22:00,
2013-04-26 22:33:00,45.0,13.0,-100.00,SE,145,3.0,4.0,27,-99.99,,,-99.99,,2013-04-27 04:33:00,
2013-04-26 22:42:00,42.0,14.0,-100.00,ESE,123,1.0,2.0,31,-99.99,,,-99.99,,2013-04-27 04:42:00,
2013-04-26 22:52:00,42.0,13.0,-100.00,ESE,122,2.0,3.0,29,-99.99,,,-99.99,,2013-04-27 04:52:00,
2013-04-26 23:02:00,42.0,13.0,-100.00,ESE,122,2.0,3.0,29,-99.99,,,-99.99,,2013-04-27 05:02:00,
2013-04-26 23:12:00,39.0,15.0,-100.00,SW,228,2.0,4.0,37,-99.99,,,-99.99,,2013-04-27 05:12:00,
2013-04-26 23:22:00,38.0,17.0,-100.00,NNW,339,1.0,2.0,42,-99.99,,,-99.99,,2013-04-27 05:22:00,
2013-04-26 23:32:00,38.0,17.0,-100.00,NNW,339,1.0,2.0,42,-99.99,,,-99.99,,2013-04-27 05:32:00,
2013-04-26 23:42:00,35.0,16.0,-100.00,ENE,57,1.0,2.0,45,-99.99,,,-99.99,,2013-04-27 05:42:00,
2013-04-26 23:52:00,36.0,16.0,-100.00,ESE,104,1.0,2.0,43,-99.99,,,-99.99,,2013-04-27 05:52:00,